Time;durP1;ratioP1;P1;durP2;ratioP2;P2;SDS_P1;SDS_P2;PMS_P1;PMS_P2;Temp;Humidity;BMP_temperature;BMP_pressure;BME280_temperature;BME280_humidity;BME280_pressure;Samples;Min_cycle;Max_cycle;Signal;HPM_P1;HPM_P2
2022/08/29 00:00:06;;;;;;;;;1.50;1.25;;;;;22.07;38.25;101159.81;5071064;27;45454;-59
2022/08/29 00:02:32;;;;;;;;;1.00;1.00;;;;;22.04;38.29;101154.69;5049582;28;45458;-59
2022/08/29 00:04:57;;;;;;;;;2.25;2.00;;;;;21.98;38.45;101153.31;5072288;27;45436;-59
2022/08/29 00:07:23;;;;;;;;;2.00;1.00;;;;;21.94;38.42;101158.97;5068634;27;46230;-59
2022/08/29 00:09:48;;;;;;;;;1.00;1.00;;;;;21.89;38.82;101156.63;5077611;28;45667;-59
2022/08/29 00:12:13;;;;;;;;;2.00;2.00;;;;;21.87;38.56;101158.53;5059907;27;67335;-59
2022/08/29 00:14:39;;;;;;;;;1.75;1.25;;;;;21.87;38.67;101152.31;5054360;28;45696;-58
2022/08/29 00:17:04;;;;;;;;;1.00;1.00;;;;;21.88;38.72;101162.03;5068448;27;69889;-58
2022/08/29 00:19:29;;;;;;;;;2.50;2.25;;;;;21.89;38.53;101150.44;5064533;27;68585;-59
2022/08/29 00:21:55;;;;;;;;;1.50;1.50;;;;;21.88;38.74;101154.06;5040389;27;45569;-58
2022/08/29 00:24:20;;;;;;;;;2.00;2.00;;;;;21.87;38.72;101147.00;5071803;27;45407;-59
2022/08/29 00:26:45;;;;;;;;;1.00;1.00;;;;;21.87;39.15;101152.31;5056797;28;46168;-58
2022/08/29 00:29:11;;;;;;;;;3.00;1.25;;;;;21.87;38.94;101157.66;5055000;28;70460;-58
2022/08/29 00:31:36;;;;;;;;;1.50;1.25;;;;;21.84;39.13;101157.88;5065735;28;45593;-58
2022/08/29 00:34:01;;;;;;;;;1.50;1.50;;;;;21.79;38.77;101153.69;5073007;27;46072;-59
2022/08/29 00:36:27;;;;;;;;;1.00;1.00;;;;;21.78;39.03;101154.69;5071568;27;46356;-59
2022/08/29 00:38:52;;;;;;;;;3.50;1.25;;;;;21.77;39.10;101144.13;5065063;28;63252;-59
2022/08/29 00:41:18;;;;;;;;;3.00;3.00;;;;;21.76;39.18;101145.06;5072718;27;59070;-59
2022/08/29 00:43:43;;;;;;;;;2.00;2.00;;;;;21.74;38.86;101147.00;5049630;28;69524;-59
2022/08/29 00:46:30;;;;;;;;;2.00;2.00;;;;;21.75;38.84;101151.38;5062527;27;45485;-59
2022/08/29 00:49:01;;;;;;;;;3.00;1.75;;;;;21.72;39.17;101146.25;5066659;27;45424;-59
2022/08/29 00:51:27;;;;;;;;;4.00;3.00;;;;;21.67;39.33;101140.38;5059049;28;45554;-59
2022/08/29 00:53:57;;;;;;;;;3.00;1.50;;;;;21.71;39.00;101149.84;5068366;27;48857;-59
2022/08/29 00:56:23;;;;;;;;;3.75;1.50;;;;;21.71;39.27;101149.84;5044773;28;46469;-60
2022/08/29 00:58:53;;;;;;;;;3.50;2.00;;;;;21.70;39.29;101146.34;5077384;27;45406;-59
2022/08/29 01:01:19;;;;;;;;;2.00;2.00;;;;;21.70;38.81;101153.50;5050630;28;45543;-60
2022/08/29 01:03:44;;;;;;;;;2.50;2.00;;;;;21.66;39.44;101157.31;5072062;27;72624;-59
2022/08/29 01:06:12;;;;;;;;;3.00;1.50;;;;;21.63;39.23;101158.38;5063135;28;46025;-60
2022/08/29 01:08:38;;;;;;;;;3.00;2.75;;;;;21.61;39.37;101154.97;5079724;28;45564;-62
2022/08/29 01:13:48;;;;;;;;;0.25;0.25;;;;;21.56;39.60;101152.59;5077203;28;45363;-59
2022/08/29 01:16:15;;;;;;;;;4.75;2.00;;;;;21.55;39.27;101153.56;5070248;27;45692;-60
2022/08/29 01:18:44;;;;;;;;;1.00;1.00;;;;;21.58;39.19;101142.72;5062167;28;45347;-59
2022/08/29 01:21:21;;;;;;;;;5.50;2.25;;;;;21.60;39.16;101142.59;5075605;27;45443;-59
2022/08/29 01:23:57;;;;;;;;;5.00;2.00;;;;;21.61;39.03;101138.97;5076813;27;45521;-59
2022/08/29 01:26:27;;;;;;;;;2.50;2.50;;;;;21.60;39.04;101135.47;5074900;27;46099;-59
2022/08/29 01:28:53;;;;;;;;;1.00;1.00;;;;;21.62;38.88;101135.38;5046249;28;45265;-59
2022/08/29 01:31:24;;;;;;;;;2.00;1.00;;;;;21.64;39.52;101140.56;5069782;27;45491;-59
2022/08/29 01:33:55;;;;;;;;;0.75;0.75;;;;;21.65;39.36;101139.63;5072554;27;45468;-59
2022/08/29 01:36:24;;;;;;;;;1.50;1.00;;;;;21.64;39.38;101137.91;5071824;27;46426;-59
2022/08/29 01:38:49;;;;;;;;;1.50;1.50;;;;;21.63;39.26;101138.88;5062331;28;45217;-59
2022/08/29 01:41:16;;;;;;;;;4.00;2.00;;;;;21.59;39.33;101133.75;5074921;28;46022;-59
2022/08/29 01:43:48;;;;;;;;;2.25;1.75;;;;;21.57;39.00;101138.31;5066723;28;45302;-59
2022/08/29 01:46:15;;;;;;;;;2.00;2.00;;;;;21.55;39.19;101140.25;5083735;27;46711;-60
2022/08/29 01:48:43;;;;;;;;;1.50;1.25;;;;;21.51;39.43;101138.72;5069528;27;45333;-60
2022/08/29 01:51:09;;;;;;;;;1.25;1.25;;;;;21.48;39.54;101130.97;5046811;28;45395;-60
2022/08/29 01:53:35;;;;;;;;;1.00;1.00;;;;;21.43;39.34;101130.38;5071861;28;45649;-60
2022/08/29 01:56:17;;;;;;;;;1.00;1.00;;;;;21.39;39.16;101131.53;5075602;28;46292;-60
2022/08/29 01:58:43;;;;;;;;;2.00;1.00;;;;;21.39;39.82;101128.88;5049377;28;45632;-60
2022/08/29 02:01:09;;;;;;;;;1.00;1.00;;;;;21.36;39.70;101131.75;5077932;27;45478;-60
2022/08/29 02:03:35;;;;;;;;;6.00;1.50;;;;;21.34;39.67;101134.50;5080029;28;45407;-60
2022/08/29 02:06:01;;;;;;;;;2.00;1.00;;;;;21.33;39.90;101143.44;5077622;27;45403;-60
2022/08/29 02:08:27;;;;;;;;;1.25;1.25;;;;;21.30;39.71;101142.78;5067511;27;45237;-60
2022/08/29 02:10:53;;;;;;;;;3.00;1.00;;;;;21.26;39.88;101135.97;5068669;28;45384;-60
2022/08/29 02:13:18;;;;;;;;;1.75;1.00;;;;;21.23;39.88;101129.03;5077578;28;55866;-60
2022/08/29 02:15:44;;;;;;;;;3.50;1.00;;;;;21.23;39.68;101124.56;5072962;28;70637;-60
2022/08/29 02:18:09;;;;;;;;;2.00;1.75;;;;;21.22;39.67;101132.66;5090530;27;63779;-60
2022/08/29 02:20:34;;;;;;;;;3.75;1.00;;;;;21.22;40.11;101137.97;5080677;27;45540;-60
2022/08/29 02:23:00;;;;;;;;;1.00;1.00;;;;;21.21;40.27;101128.25;5073240;27;45165;-60
2022/08/29 02:25:41;;;;;;;;;1.50;1.00;;;;;21.21;39.74;101133.59;5074744;27;45823;-59
2022/08/29 02:28:10;;;;;;;;;3.00;1.00;;;;;21.18;39.76;101134.66;5078844;27;45631;-60
2022/08/29 02:30:37;;;;;;;;;1.00;1.00;;;;;21.14;39.89;101129.63;5036975;28;45496;-60
2022/08/29 02:33:03;;;;;;;;;3.00;1.25;;;;;21.10;40.21;101131.63;5072267;27;45179;-60
2022/08/29 02:35:28;;;;;;;;;2.00;1.00;;;;;21.08;40.00;101132.69;5080710;27;45922;-59
2022/08/29 02:37:53;;;;;;;;;1.00;1.00;;;;;21.02;40.51;101129.47;5069205;28;73878;-60
2022/08/29 02:40:19;;;;;;;;;2.25;1.50;;;;;20.99;40.25;101126.16;5039949;28;45378;-60
2022/08/29 02:42:44;;;;;;;;;2.50;1.00;;;;;20.94;40.47;101129.09;5079442;27;45197;-60
2022/08/29 02:45:10;;;;;;;;;3.25;1.00;;;;;20.92;40.49;101125.69;5074023;27;68459;-60
2022/08/29 02:47:35;;;;;;;;;2.00;2.00;;;;;20.91;40.61;101123.13;5076853;27;45420;-60
2022/08/29 02:50:06;;;;;;;;;4.00;2.00;;;;;20.88;40.40;101124.19;5078879;27;45215;-60
2022/08/29 02:52:31;;;;;;;;;1.50;1.00;;;;;20.89;40.63;101122.38;5074687;27;45944;-60
2022/08/29 02:54:57;;;;;;;;;2.00;1.00;;;;;20.89;40.76;101123.22;5055407;28;47051;-60
2022/08/29 02:57:22;;;;;;;;;3.00;1.00;;;;;20.88;40.86;101118.88;5076950;27;45395;-60
2022/08/29 02:59:48;;;;;;;;;2.00;1.75;;;;;20.86;41.05;101123.44;5061725;28;45594;-60
2022/08/29 03:02:13;;;;;;;;;0.00;0.00;;;;;20.84;40.66;101127.97;5059963;27;64865;-60
2022/08/29 03:04:38;;;;;;;;;2.00;1.00;;;;;20.83;40.88;101118.31;5078822;27;71208;-60
2022/08/29 03:07:04;;;;;;;;;2.00;2.00;;;;;20.81;40.78;101118.41;5073796;27;45206;-59
2022/08/29 03:09:29;;;;;;;;;1.50;1.50;;;;;20.80;40.92;101118.50;5070492;27;45327;-60
2022/08/29 03:11:55;;;;;;;;;2.00;2.00;;;;;20.80;41.20;101118.50;5075698;27;45185;-60
2022/08/29 03:14:21;;;;;;;;;4.50;1.75;;;;;20.78;40.89;101120.41;5077504;27;46131;-60
2022/08/29 03:16:46;;;;;;;;;4.00;1.00;;;;;20.79;40.81;101116.81;5071289;27;45447;-60
2022/08/29 03:19:11;;;;;;;;;2.00;1.00;;;;;20.76;41.37;101114.34;5065265;28;64136;-60
2022/08/29 03:21:37;;;;;;;;;1.25;1.00;;;;;20.74;40.99;101117.09;5058165;28;70413;-60
2022/08/29 03:24:02;;;;;;;;;3.00;1.50;;;;;20.74;41.50;101117.09;5072607;27;58681;-60
2022/08/29 03:26:27;;;;;;;;;1.25;1.00;;;;;20.70;41.59;101112.06;5076811;27;71963;-60
2022/08/29 03:28:53;;;;;;;;;3.75;1.25;;;;;20.63;41.66;101107.13;5077797;27;65384;-60
2022/08/29 03:31:18;;;;;;;;;1.00;1.00;;;;;20.61;41.51;101118.78;5072000;27;45506;-60
2022/08/29 03:33:44;;;;;;;;;1.00;1.00;;;;;20.59;41.74;101112.69;5068077;27;46315;-60
2022/08/29 03:36:09;;;;;;;;;2.25;1.00;;;;;20.59;41.52;101118.03;5077129;27;63506;-60
2022/08/29 03:38:36;;;;;;;;;2.00;1.00;;;;;20.55;41.13;101106.72;5077912;27;45474;-60
2022/08/29 03:41:03;;;;;;;;;2.00;1.00;;;;;20.55;41.94;101119.16;5070476;27;46299;-60
2022/08/29 03:43:29;;;;;;;;;4.50;1.00;;;;;20.52;41.56;101106.91;5078065;27;46786;-60
2022/08/29 03:45:54;;;;;;;;;4.00;1.00;;;;;20.51;41.43;101107.88;5077668;27;45142;-60
2022/08/29 03:48:19;;;;;;;;;3.00;1.00;;;;;20.51;41.99;101107.03;5065025;27;45201;-60
2022/08/29 03:50:45;;;;;;;;;0.50;0.50;;;;;20.48;41.72;101098.28;5058181;27;45522;-60
2022/08/29 03:53:10;;;;;;;;;2.75;1.50;;;;;20.50;41.48;101106.16;5059326;28;46156;-60
2022/08/29 03:55:36;;;;;;;;;2.00;1.00;;;;;20.52;41.85;101112.22;5072623;27;69676;-60
2022/08/29 03:58:01;;;;;;;;;4.00;2.00;;;;;20.53;41.71;101100.66;5049738;28;45498;-59
2022/08/29 04:00:27;;;;;;;;;3.75;2.00;;;;;20.54;41.68;101107.69;5060362;27;45410;-62
2022/08/29 04:02:54;;;;;;;;;2.00;2.00;;;;;20.55;41.84;101111.19;5064548;28;46913;-59
2022/08/29 04:05:19;;;;;;;;;6.00;1.25;;;;;20.54;41.76;101114.78;5074888;28;45489;-60
2022/08/29 04:07:49;;;;;;;;;2.50;2.00;;;;;20.51;41.67;101122.97;5044124;28;45368;-60
2022/08/29 04:10:30;;;;;;;;;2.00;2.00;;;;;20.47;41.68;101117.84;5074324;27;45509;-60
2022/08/29 04:12:56;;;;;;;;;2.75;1.00;;;;;20.48;42.03;101116.03;5063416;27;45422;-60
2022/08/29 04:15:23;;;;;;;;;1.00;1.00;;;;;20.45;41.80;101119.75;5073035;28;45386;-60
2022/08/29 04:17:54;;;;;;;;;3.00;2.00;;;;;20.43;41.70;101116.34;5046560;28;45426;-60
2022/08/29 04:20:24;;;;;;;;;3.25;1.00;;;;;20.41;41.71;101115.56;5070200;28;45507;-60
2022/08/29 04:22:49;;;;;;;;;1.75;1.75;;;;;20.40;41.80;101102.38;5049293;27;46102;-60
2022/08/29 04:25:15;;;;;;;;;1.00;1.00;;;;;20.42;41.65;101117.28;5074097;27;45358;-60
2022/08/29 04:27:41;;;;;;;;;2.00;2.00;;;;;20.40;42.10;101113.03;5074816;27;45532;-60
2022/08/29 04:30:11;;;;;;;;;2.25;1.00;;;;;20.38;41.80;101115.78;5057834;28;45549;-60
2022/08/29 04:32:38;;;;;;;;;0.00;0.00;;;;;20.34;41.65;101108.91;5078403;27;46917;-60
2022/08/29 04:35:04;;;;;;;;;2.25;2.00;;;;;20.35;42.01;101115.09;5078034;27;45830;-60
2022/08/29 04:37:30;;;;;;;;;3.00;2.00;;;;;20.33;41.70;101107.22;5061902;27;45387;-60
2022/08/29 04:39:55;;;;;;;;;1.00;1.00;;;;;20.33;41.92;101106.34;5080680;27;46230;-60
2022/08/29 04:42:20;;;;;;;;;2.25;2.00;;;;;20.34;41.85;101110.72;5079320;27;52229;-60
2022/08/29 04:44:46;;;;;;;;;1.25;1.25;;;;;20.34;41.76;101108.06;5059043;27;45444;-61
2022/08/29 04:47:12;;;;;;;;;4.00;2.00;;;;;20.35;42.04;101117.78;5066839;27;45509;-60
2022/08/29 04:49:38;;;;;;;;;1.00;1.00;;;;;20.36;41.67;101119.47;5081516;27;45323;-60
2022/08/29 04:52:03;;;;;;;;;2.25;1.50;;;;;20.37;41.83;101121.19;5074702;27;47240;-60
2022/08/29 04:54:29;;;;;;;;;4.25;1.00;;;;;20.38;41.94;101125.53;5079619;27;45313;-60
2022/08/29 04:56:54;;;;;;;;;5.50;2.00;;;;;20.38;41.93;101129.06;5065094;27;47800;-61
2022/08/29 04:59:19;;;;;;;;;2.00;1.25;;;;;20.37;41.72;101126.50;5071455;27;54621;-60
2022/08/29 05:01:45;;;;;;;;;3.00;2.00;;;;;20.36;41.75;101130.97;5075093;27;66892;-60
2022/08/29 05:04:10;;;;;;;;;3.50;1.50;;;;;20.37;41.84;101132.66;5072006;27;45275;-60
2022/08/29 05:06:36;;;;;;;;;3.25;2.00;;;;;20.37;42.08;101140.63;5078299;27;45276;-60
2022/08/29 05:09:01;;;;;;;;;2.00;2.00;;;;;20.37;41.81;101145.09;5081524;27;48620;-60
2022/08/29 05:11:29;;;;;;;;;5.25;2.00;;;;;20.34;41.95;101143.47;5056761;27;45416;-60
2022/08/29 05:13:55;;;;;;;;;1.75;1.75;;;;;20.32;42.00;101144.53;5078187;27;45874;-60
2022/08/29 05:16:20;;;;;;;;;2.50;2.00;;;;;20.28;41.95;101151.84;5079752;27;45328;-60
2022/08/29 05:18:45;;;;;;;;;3.00;2.00;;;;;20.28;42.18;101149.19;5080864;27;59527;-60
2022/08/29 05:21:12;;;;;;;;;4.25;2.25;;;;;20.28;42.21;101151.84;5071729;27;47462;-60
2022/08/29 05:23:39;;;;;;;;;2.75;2.00;;;;;20.24;42.59;101145.00;5063750;27;46138;-60
2022/08/29 05:26:04;;;;;;;;;1.00;1.00;;;;;20.24;41.92;101150.31;5058256;28;45378;-60
2022/08/29 05:28:31;;;;;;;;;2.75;2.00;;;;;20.25;41.97;101144.03;5072587;27;45602;-60
2022/08/29 05:30:57;;;;;;;;;2.00;2.00;;;;;20.24;42.13;101156.50;5073968;27;46210;-60
2022/08/29 05:33:23;;;;;;;;;3.00;2.00;;;;;20.25;42.23;101160.00;5070332;27;45420;-59
2022/08/29 05:35:48;;;;;;;;;3.25;1.00;;;;;20.25;41.90;101160.00;5058603;27;68303;-58
2022/08/29 05:38:14;;;;;;;;;2.25;2.00;;;;;20.27;42.29;101168.72;5077577;28;66626;-59
2022/08/29 05:40:40;;;;;;;;;3.00;2.00;;;;;20.26;42.32;101170.53;5058478;28;46029;-59
2022/08/29 05:43:07;;;;;;;;;3.75;1.25;;;;;20.27;42.06;101172.25;5078301;27;45343;-59
2022/08/29 05:45:32;;;;;;;;;1.00;1.00;;;;;20.28;42.24;101170.44;5062226;28;45362;-59
2022/08/29 05:48:02;;;;;;;;;4.25;3.00;;;;;20.27;42.18;101180.22;5070080;28;49400;-59
2022/08/29 05:50:27;;;;;;;;;4.00;2.00;;;;;20.26;42.15;101182.97;5056495;28;45377;-53
2022/08/29 05:52:53;;;;;;;;;3.75;2.00;;;;;20.25;42.04;101182.09;5042948;28;45332;-51
2022/08/29 05:55:18;;;;;;;;;1.50;1.25;;;;;20.28;42.19;101178.41;5080655;28;45414;-49
2022/08/29 05:57:43;;;;;;;;;6.00;1.00;;;;;20.30;42.20;101185.34;5075186;27;45478;-50
2022/08/29 06:00:11;;;;;;;;;2.75;2.00;;;;;20.32;42.17;101179.09;5059643;27;60391;-53
2022/08/29 06:02:36;;;;;;;;;3.00;2.00;;;;;20.30;42.60;101185.34;5071630;27;45405;-53
2022/08/29 06:05:03;;;;;;;;;2.75;2.75;;;;;20.29;42.15;101186.31;5079398;27;45606;-53
2022/08/29 06:07:29;;;;;;;;;3.00;2.00;;;;;20.32;42.66;101187.91;5054200;27;45646;-52
2022/08/29 06:09:55;;;;;;;;;1.75;1.75;;;;;20.32;42.23;101193.22;5074064;27;45470;-54
2022/08/29 06:12:20;;;;;;;;;4.75;2.00;;;;;20.34;42.39;101193.13;5044126;27;45443;-53
2022/08/29 06:14:45;;;;;;;;;3.75;2.25;;;;;20.34;42.38;101196.63;5078724;27;45465;-54
2022/08/29 06:17:11;;;;;;;;;2.00;2.00;;;;;20.33;42.27;101186.09;5073180;27;58047;-53
2022/08/29 06:19:38;;;;;;;;;4.75;4.00;;;;;20.33;42.14;101199.38;5075060;28;45475;-51
2022/08/29 06:22:06;;;;;;;;;5.25;2.00;;;;;20.33;42.07;101186.97;5052269;28;45822;-55
2022/08/29 06:24:32;;;;;;;;;7.00;3.50;;;;;20.33;42.40;101192.28;5076337;27;45869;-54
2022/08/29 06:26:58;;;;;;;;;3.50;3.00;;;;;20.36;42.20;101199.19;5064586;28;45348;-55
2022/08/29 06:29:25;;;;;;;;;2.00;2.00;;;;;20.37;42.50;101204.44;5071185;27;46350;-53
2022/08/29 06:31:51;;;;;;;;;5.00;3.25;;;;;20.40;42.43;101208.72;5054146;28;45383;-54
2022/08/29 06:34:17;;;;;;;;;8.00;2.75;;;;;20.45;42.32;101209.28;5069067;27;45332;-51
2022/08/29 06:36:42;;;;;;;;;2.25;2.25;;;;;20.48;42.38;101214.41;5052479;28;45601;-50
2022/08/29 06:39:09;;;;;;;;;1.00;1.00;;;;;20.51;42.21;101208.91;5050579;28;66264;-55
2022/08/29 06:41:36;;;;;;;;;5.50;2.50;;;;;20.54;42.12;101202.53;5056779;28;45365;-53
2022/08/29 06:44:02;;;;;;;;;2.00;1.00;;;;;20.55;42.24;101210.41;5057022;28;45482;-54
2022/08/29 06:46:30;;;;;;;;;5.00;2.00;;;;;20.58;41.96;101204.09;5088837;27;45446;-54
2022/08/29 06:48:57;;;;;;;;;3.50;1.50;;;;;20.54;42.04;101183.94;5051664;28;45481;-54
2022/08/29 06:51:23;;;;;;;;;3.00;3.00;;;;;20.57;41.89;101203.19;5050892;28;45714;-54
2022/08/29 06:53:49;;;;;;;;;3.50;3.00;;;;;20.58;41.95;101202.25;5046056;28;45568;-49
2022/08/29 06:56:15;;;;;;;;;3.50;2.00;;;;;20.59;42.17;101198.66;5047160;28;45733;-53
2022/08/29 06:58:40;;;;;;;;;4.00;2.50;;;;;20.60;41.96;101207.50;5054880;28;46250;-52
2022/08/29 07:01:13;;;;;;;;;5.75;4.00;;;;;20.63;42.21;101196.72;5058526;28;45276;-55
2022/08/29 07:03:39;;;;;;;;;2.50;2.00;;;;;20.63;41.74;101200.22;5051014;28;45382;-54
2022/08/29 07:06:05;;;;;;;;;4.00;2.50;;;;;20.65;41.85;101202.78;5055318;28;45240;-55
2022/08/29 07:08:31;;;;;;;;;5.25;3.00;;;;;20.66;41.69;101205.34;5052652;28;46225;-52
2022/08/29 07:10:56;;;;;;;;;5.00;3.00;;;;;20.66;41.99;101207.13;5047992;28;45602;-53
2022/08/29 07:13:22;;;;;;;;;3.00;2.50;;;;;20.64;41.70;101207.22;5048177;28;65316;-55
2022/08/29 07:15:47;;;;;;;;;4.75;2.00;;;;;20.69;42.05;101206.09;5048928;28;71041;-54
2022/08/29 07:18:12;;;;;;;;;7.50;3.25;;;;;20.72;41.90;101212.09;5049990;28;72350;-50
2022/08/29 07:20:40;;;;;;;;;6.75;2.00;;;;;20.75;41.97;101211.03;5055612;28;45469;-38
2022/08/29 07:23:06;;;;;;;;;5.00;3.00;;;;;20.76;41.70;101208.28;5057530;28;45410;-38
2022/08/29 07:25:32;;;;;;;;;4.00;2.75;;;;;20.78;41.56;101202.88;5057234;28;45606;-39
2022/08/29 07:27:58;;;;;;;;;3.00;3.00;;;;;20.81;42.06;101200.03;5055563;28;45449;-39
2022/08/29 07:30:24;;;;;;;;;1.75;1.75;;;;;20.83;41.75;101209.59;5057648;28;45208;-39
2022/08/29 07:32:49;;;;;;;;;4.00;3.00;;;;;20.89;41.84;101202.19;5065506;28;45609;-39
2022/08/29 07:35:15;;;;;;;;;4.50;3.50;;;;;20.93;41.81;101201.91;5076621;27;45242;-39
2022/08/29 07:37:41;;;;;;;;;2.00;2.00;;;;;20.95;41.34;101200.00;5079290;28;46872;-39
2022/08/29 07:40:09;;;;;;;;;5.75;3.00;;;;;21.00;41.53;101202.34;5059796;28;45606;-39
2022/08/29 07:42:35;;;;;;;;;3.50;2.25;;;;;21.02;41.32;101211.13;5076240;27;45323;-37
2022/08/29 07:45:00;;;;;;;;;6.50;2.00;;;;;21.05;41.37;101209.13;5049674;28;46342;-38
2022/08/29 07:47:27;;;;;;;;;3.00;2.00;;;;;21.09;41.60;101207.13;5039827;28;45593;-38
2022/08/29 07:49:53;;;;;;;;;4.50;2.75;;;;;21.13;41.59;101203.28;5042404;28;45584;-38
2022/08/29 07:52:18;;;;;;;;;2.00;2.00;;;;;21.17;41.23;101214.59;5078556;28;45255;-38
2022/08/29 07:54:44;;;;;;;;;2.00;1.75;;;;;21.21;40.90;101208.13;5059083;28;45585;-38
2022/08/29 07:57:09;;;;;;;;;5.00;1.75;;;;;21.25;41.03;101212.31;5077629;27;58189;-38
2022/08/29 07:59:34;;;;;;;;;4.00;3.00;;;;;21.27;40.62;101204.22;5077329;27;45378;-39
2022/08/29 08:02:00;;;;;;;;;3.75;1.75;;;;;21.34;40.64;101210.88;5072279;28;66301;-39
2022/08/29 08:04:25;;;;;;;;;3.00;3.00;;;;;21.38;40.78;101218.53;5071064;28;71884;-39
2022/08/29 08:06:50;;;;;;;;;4.25;1.00;;;;;21.40;40.86;101210.44;5079051;28;45233;-39
2022/08/29 08:09:16;;;;;;;;;2.00;2.00;;;;;21.45;41.04;101212.81;5060737;28;45266;-39
2022/08/29 08:11:42;;;;;;;;;3.25;2.00;;;;;21.48;40.37;101208.19;5061013;28;45257;-39
2022/08/29 08:14:08;;;;;;;;;4.25;2.75;;;;;21.51;40.44;101207.97;5077369;27;45462;-40
2022/08/29 08:16:34;;;;;;;;;5.50;2.25;;;;;21.55;40.38;101203.31;5032661;28;47285;-39
2022/08/29 08:18:59;;;;;;;;;4.25;2.50;;;;;21.61;40.76;101198.41;5077467;28;45434;-39
2022/08/29 08:21:25;;;;;;;;;2.00;0.00;;;;;21.63;40.88;101186.81;5076949;27;45361;-40
2022/08/29 08:23:51;;;;;;;;;5.00;2.75;;;;;21.74;40.63;101187.81;5060287;27;45364;-39
2022/08/29 08:26:17;;;;;;;;;4.00;3.00;;;;;21.80;39.96;101192.72;5059815;28;45992;-39
2022/08/29 08:28:43;;;;;;;;;3.00;3.00;;;;;21.86;40.28;101190.59;5078297;27;45249;-39
2022/08/29 08:31:11;;;;;;;;;3.50;2.00;;;;;21.90;40.48;101192.97;5078605;28;45581;-40
2022/08/29 08:33:38;;;;;;;;;4.25;4.00;;;;;21.93;40.17;101186.56;5077562;27;45359;-39
2022/08/29 08:36:11;;;;;;;;;2.75;2.00;;;;;21.99;40.27;101192.34;5055191;28;45566;-39
2022/08/29 08:38:36;;;;;;;;;2.00;1.50;;;;;22.04;39.76;101191.16;5077828;28;45281;-40
2022/08/29 08:41:06;;;;;;;;;2.50;2.00;;;;;22.09;39.73;101195.22;5076547;27;45284;-39
2022/08/29 08:43:52;;;;;;;;;4.25;2.00;;;;;22.14;40.42;101190.44;5076672;27;45583;-38
2022/08/29 08:46:26;;;;;;;;;3.50;3.50;;;;;22.22;39.85;101199.72;5073483;27;46282;-39
2022/08/29 08:48:53;;;;;;;;;3.00;3.00;;;;;22.27;40.14;101201.13;5076706;28;45747;-39
2022/08/29 08:51:23;;;;;;;;;10.50;4.75;;;;;22.34;40.30;101198.91;5056425;28;45379;-44
2022/08/29 08:53:52;;;;;;;;;3.25;2.00;;;;;22.39;39.94;101198.59;5042044;28;45497;-38
2022/08/29 08:56:39;;;;;;;;;3.75;2.50;;;;;22.43;39.74;101208.09;5055440;28;46544;-38
2022/08/29 08:59:20;;;;;;;;;4.25;3.00;;;;;22.46;39.76;101203.38;5060384;28;45491;-38
2022/08/29 09:02:20;;;;;;;;;2.75;2.25;;;;;22.51;39.72;101201.25;5077062;28;45537;-39
2022/08/29 09:05:27;;;;;;;;;6.00;3.00;;;;;22.59;39.88;101203.38;5076395;27;45204;-39
2022/08/29 09:08:11;;;;;;;;;3.75;2.00;;;;;22.66;39.94;101212.66;5045687;28;46440;-39
2022/08/29 09:10:52;;;;;;;;;2.25;2.00;;;;;22.74;39.42;101209.47;5069974;27;45232;-39
2022/08/29 09:13:57;;;;;;;;;2.25;2.00;;;;;22.81;39.55;101205.38;5052097;28;45313;-39
2022/08/29 09:16:36;;;;;;;;;4.00;3.00;;;;;22.88;39.46;101205.81;5075787;28;45282;-39
2022/08/29 09:19:04;;;;;;;;;5.25;3.50;;;;;22.92;38.92;101207.28;5080784;27;47187;-37
2022/08/29 09:21:37;;;;;;;;;4.00;3.00;;;;;22.94;39.40;101200.88;5080516;27;45721;-38
2022/08/29 09:24:05;;;;;;;;;2.25;2.00;;;;;23.01;39.35;101203.09;5050024;28;45673;-39
2022/08/29 09:26:30;;;;;;;;;3.25;2.25;;;;;23.06;38.86;101204.50;5057506;27;45325;-39
2022/08/29 09:28:57;;;;;;;;;4.50;3.25;;;;;23.12;38.84;101205.88;5079762;27;47013;-38
2022/08/29 09:31:25;;;;;;;;;2.25;2.25;;;;;23.16;38.54;101199.38;5077548;27;45273;-39
2022/08/29 09:33:59;;;;;;;;;5.25;2.50;;;;;23.21;38.64;101201.69;5064948;28;45488;-39
2022/08/29 09:36:35;;;;;;;;;2.50;2.50;;;;;23.24;38.82;101199.66;5039896;28;45624;-39
2022/08/29 09:39:19;;;;;;;;;3.50;2.75;;;;;23.27;38.58;101202.09;5081189;27;47075;-38
2022/08/29 09:41:51;;;;;;;;;5.50;4.75;;;;;23.31;38.25;101202.72;5074390;27;45657;-39
2022/08/29 09:44:27;;;;;;;;;4.25;4.00;;;;;23.33;38.46;101195.44;5076792;27;45356;-38
2022/08/29 09:47:13;;;;;;;;;4.25;3.75;;;;;23.41;38.44;101187.72;5060277;28;45556;-38
2022/08/29 09:49:40;;;;;;;;;7.00;4.50;;;;;23.49;38.52;101195.16;5070635;27;46213;-38
2022/08/29 09:52:15;;;;;;;;;2.25;2.00;;;;;23.56;38.48;101193.75;5039908;28;45672;-38
2022/08/29 09:54:42;;;;;;;;;4.25;2.00;;;;;23.64;38.24;101191.34;5067887;27;46114;-38
2022/08/29 09:57:12;;;;;;;;;6.25;2.00;;;;;23.70;38.44;101180.19;5069775;27;45234;-38
2022/08/29 09:59:43;;;;;;;;;4.50;3.00;;;;;23.76;38.30;101176.22;5058975;27;45665;-38
2022/08/29 10:02:29;;;;;;;;;6.00;2.00;;;;;23.83;38.13;101185.53;5057364;27;45770;-38
2022/08/29 10:04:59;;;;;;;;;4.75;2.00;;;;;23.86;37.88;101187.94;5053651;28;45785;-38
2022/08/29 10:07:26;;;;;;;;;2.25;2.25;;;;;23.94;38.06;101183.81;5060594;27;45675;-39
2022/08/29 10:09:53;;;;;;;;;4.00;3.25;;;;;24.01;38.05;101185.06;5054704;28;46384;-39
2022/08/29 10:12:26;;;;;;;;;4.00;2.00;;;;;24.06;37.70;101181.09;5052035;28;47104;-44
2022/08/29 10:14:55;;;;;;;;;5.00;2.00;;;;;24.10;37.70;101179.03;5075947;28;45260;-43
2022/08/29 10:21:05;;;;;;;;;2.00;2.00;;;;;24.19;37.73;101175.63;5076924;28;45809;-44
2022/08/29 10:23:51;;;;;;;;;4.00;2.00;;;;;24.25;37.66;101182.31;5077105;27;45668;-42
2022/08/29 10:26:53;;;;;;;;;3.00;2.25;;;;;24.28;37.48;101173.22;5075295;27;45628;-45
2022/08/29 10:29:50;;;;;;;;;5.75;4.00;;;;;24.33;37.76;101168.34;5092398;27;45395;-43
2022/08/29 10:32:18;;;;;;;;;7.00;3.75;;;;;24.41;37.42;101171.28;5078028;27;45480;-44
2022/08/29 10:35:05;;;;;;;;;4.00;4.00;;;;;24.45;37.52;101164.69;5076331;28;45452;-43
2022/08/29 10:37:52;;;;;;;;;6.00;4.00;;;;;24.49;37.38;101163.50;5080201;28;45318;-47
2022/08/29 10:40:41;;;;;;;;;3.75;3.75;;;;;24.55;37.17;101159.50;5072052;28;45237;-45
2022/08/29 10:43:22;;;;;;;;;7.00;4.50;;;;;24.60;37.53;101160.00;5073456;28;46526;-45
2022/08/29 10:46:25;;;;;;;;;4.00;2.75;;;;;24.69;37.32;101171.81;5075921;28;45413;-42
2022/08/29 10:49:11;;;;;;;;;3.00;3.00;;;;;24.74;37.63;101159.75;5060078;28;45665;-43
2022/08/29 10:52:14;;;;;;;;;3.50;3.50;;;;;24.78;36.48;101161.19;5077362;28;45204;-43
2022/08/29 10:55:27;;;;;;;;;6.25;5.25;;;;;24.82;36.65;101153.78;5036817;28;45480;-42
2022/08/29 10:58:12;;;;;;;;;5.00;4.00;;;;;24.87;36.98;101162.28;5035563;28;45266;-43
2022/08/29 11:00:51;;;;;;;;;3.25;3.25;;;;;24.91;37.10;101149.50;5074209;28;45351;-42
2022/08/29 11:03:48;;;;;;;;;5.50;4.75;;;;;24.97;36.60;101152.53;5058122;28;45461;-41
2022/08/29 11:06:22;;;;;;;;;6.00;5.00;;;;;25.01;36.58;101143.25;5066346;28;47214;-43
2022/08/29 11:09:16;;;;;;;;;4.00;2.75;;;;;25.04;36.37;101150.22;5057962;28;45311;-42
2022/08/29 11:11:48;;;;;;;;;6.00;3.75;;;;;25.07;36.57;101149.09;5055378;27;45602;-42
2022/08/29 11:14:24;;;;;;;;;4.75;3.00;;;;;25.08;36.72;101143.63;5055688;28;45320;-45
2022/08/29 11:16:51;;;;;;;;;5.00;3.25;;;;;25.12;36.58;101149.56;5054348;28;47309;-44
2022/08/29 11:19:23;;;;;;;;;3.75;3.00;;;;;25.13;36.49;101154.81;5063452;28;45834;-44
2022/08/29 11:21:51;;;;;;;;;4.00;4.00;;;;;25.18;36.68;101147.25;5070038;27;45319;-43
2022/08/29 11:24:19;;;;;;;;;4.00;3.75;;;;;25.24;36.56;101147.72;5074132;28;45488;-45
2022/08/29 11:27:07;;;;;;;;;5.00;5.00;;;;;25.29;36.68;101151.75;5072116;28;46332;-42
2022/08/29 11:29:39;;;;;;;;;6.00;4.25;;;;;25.37;36.86;101135.03;5060142;28;45560;-43
2022/08/29 11:32:42;;;;;;;;;8.00;4.50;;;;;25.42;35.94;101140.00;5077432;28;45371;-49
2022/08/29 11:35:16;;;;;;;;;7.25;4.25;;;;;25.45;36.30;101129.88;5042565;28;45244;-43
2022/08/29 11:38:23;;;;;;;;;4.00;3.00;;;;;25.49;36.23;101135.84;5059418;28;47135;-43
2022/08/29 11:41:11;;;;;;;;;4.75;2.75;;;;;25.53;36.42;101134.59;5054308;28;45847;-44